sensor_id;sensor_type;location;lat;lon;timestamp;pressure;altitude;pressure_sealevel;temperature;humidity
36248;BME280;22287;50.824;5.644;2023-02-01T00:01:07;101410.59;;;5.76;82.67
36248;BME280;22287;50.824;5.644;2023-02-01T00:03:35;101407.31;;;5.71;83.31
36248;BME280;22287;50.824;5.644;2023-02-01T00:06:02;101417.66;;;5.61;83.74
36248;BME280;22287;50.824;5.644;2023-02-01T00:08:29;101419.56;;;5.59;83.98
36248;BME280;22287;50.824;5.644;2023-02-01T00:11:01;101417.00;;;5.73;83.82
36248;BME280;22287;50.824;5.644;2023-02-01T00:13:29;101417.16;;;5.38;85.66
36248;BME280;22287;50.824;5.644;2023-02-01T00:18:46;101407.84;;;5.77;85.49
36248;BME280;22287;50.824;5.644;2023-02-01T00:21:15;101393.38;;;5.80;85.66
36248;BME280;22287;50.824;5.644;2023-02-01T00:23:43;101399.00;;;5.93;84.64
36248;BME280;22287;50.824;5.644;2023-02-01T00:26:16;101390.94;;;5.93;85.28
36248;BME280;22287;50.824;5.644;2023-02-01T00:28:43;101387.34;;;5.76;85.30
36248;BME280;22287;50.824;5.644;2023-02-01T00:31:10;101387.94;;;5.81;85.67
36248;BME280;22287;50.824;5.644;2023-02-01T00:33:37;101390.41;;;5.86;85.62
36248;BME280;22287;50.824;5.644;2023-02-01T00:36:06;101389.22;;;6.23;83.87
36248;BME280;22287;50.824;5.644;2023-02-01T00:38:36;101381.34;;;6.20;84.99
36248;BME280;22287;50.824;5.644;2023-02-01T00:41:05;101375.38;;;6.15;84.54
36248;BME280;22287;50.824;5.644;2023-02-01T00:43:33;101372.06;;;5.94;85.38
36248;BME280;22287;50.824;5.644;2023-02-01T00:46:00;101376.28;;;5.82;85.95
36248;BME280;22287;50.824;5.644;2023-02-01T00:48:27;101366.38;;;6.00;85.43
36248;BME280;22287;50.824;5.644;2023-02-01T00:50:54;101373.81;;;6.11;85.36
36248;BME280;22287;50.824;5.644;2023-02-01T00:53:21;101376.84;;;6.20;84.77
36248;BME280;22287;50.824;5.644;2023-02-01T00:55:48;101377.28;;;6.13;84.88
36248;BME280;22287;50.824;5.644;2023-02-01T00:58:15;101367.41;;;6.13;85.00
36248;BME280;22287;50.824;5.644;2023-02-01T01:00:42;101353.81;;;6.16;85.09
36248;BME280;22287;50.824;5.644;2023-02-01T01:03:09;101347.84;;;5.96;85.37
36248;BME280;22287;50.824;5.644;2023-02-01T01:05:46;101334.59;;;5.93;85.94
36248;BME280;22287;50.824;5.644;2023-02-01T01:08:15;101330.34;;;6.20;85.21
36248;BME280;22287;50.824;5.644;2023-02-01T01:10:42;101325.44;;;6.12;84.52
36248;BME280;22287;50.824;5.644;2023-02-01T01:13:10;101331.59;;;5.99;86.10
36248;BME280;22287;50.824;5.644;2023-02-01T01:15:38;101308.16;;;6.47;83.45
36248;BME280;22287;50.824;5.644;2023-02-01T01:18:06;101316.00;;;6.21;84.54
36248;BME280;22287;50.824;5.644;2023-02-01T01:20:35;101327.81;;;6.32;83.46
36248;BME280;22287;50.824;5.644;2023-02-01T01:23:02;101335.38;;;6.26;84.11
36248;BME280;22287;50.824;5.644;2023-02-01T01:25:30;101349.47;;;6.14;85.20
36248;BME280;22287;50.824;5.644;2023-02-01T01:28:10;101356.50;;;6.01;85.56
36248;BME280;22287;50.824;5.644;2023-02-01T01:30:49;101375.88;;;6.06;85.45
36248;BME280;22287;50.824;5.644;2023-02-01T01:33:17;101371.94;;;6.13;84.77
36248;BME280;22287;50.824;5.644;2023-02-01T01:35:43;101369.34;;;6.27;84.59
36248;BME280;22287;50.824;5.644;2023-02-01T01:38:10;101365.94;;;6.08;84.38
36248;BME280;22287;50.824;5.644;2023-02-01T01:40:38;101353.88;;;6.30;84.36
36248;BME280;22287;50.824;5.644;2023-02-01T01:43:14;101360.06;;;6.17;84.28
36248;BME280;22287;50.824;5.644;2023-02-01T01:45:42;101359.28;;;6.15;84.90
36248;BME280;22287;50.824;5.644;2023-02-01T01:50:55;101354.00;;;6.29;84.23
36248;BME280;22287;50.824;5.644;2023-02-01T01:53:27;101352.94;;;6.31;84.23
36248;BME280;22287;50.824;5.644;2023-02-01T01:55:55;101343.69;;;6.37;83.12
36248;BME280;22287;50.824;5.644;2023-02-01T01:58:26;101334.22;;;6.45;83.15
36248;BME280;22287;50.824;5.644;2023-02-01T02:00:56;101331.53;;;6.45;82.85
36248;BME280;22287;50.824;5.644;2023-02-01T02:03:27;101326.13;;;6.61;82.70
36248;BME280;22287;50.824;5.644;2023-02-01T02:05:58;101331.03;;;6.39;83.47
36248;BME280;22287;50.824;5.644;2023-02-01T02:08:28;101330.00;;;6.26;84.29
36248;BME280;22287;50.824;5.644;2023-02-01T02:10:56;101344.72;;;6.03;84.91
36248;BME280;22287;50.824;5.644;2023-02-01T02:13:47;101342.75;;;6.07;84.49
36248;BME280;22287;50.824;5.644;2023-02-01T02:19:28;101357.00;;;5.91;85.75
36248;BME280;22287;50.824;5.644;2023-02-01T02:30:27;101371.84;;;5.99;86.19
36248;BME280;22287;50.824;5.644;2023-02-01T02:47:43;101365.88;;;5.94;85.68
36248;BME280;22287;50.824;5.644;2023-02-01T02:50:34;101368.59;;;6.08;85.99
36248;BME280;22287;50.824;5.644;2023-02-01T02:53:34;101360.56;;;5.92;86.86
36248;BME280;22287;50.824;5.644;2023-02-01T02:56:23;101354.72;;;5.84;87.09
36248;BME280;22287;50.824;5.644;2023-02-01T02:59:26;101348.34;;;5.86;87.38
36248;BME280;22287;50.824;5.644;2023-02-01T03:02:27;101354.25;;;5.93;86.27
36248;BME280;22287;50.824;5.644;2023-02-01T03:05:14;101360.09;;;5.84;86.73
36248;BME280;22287;50.824;5.644;2023-02-01T03:16:02;101356.34;;;6.04;84.74
36248;BME280;22287;50.824;5.644;2023-02-01T03:18:38;101350.63;;;6.10;84.08
36248;BME280;22287;50.824;5.644;2023-02-01T03:21:12;101342.41;;;6.13;83.83
36248;BME280;22287;50.824;5.644;2023-02-01T03:23:42;101338.75;;;6.14;83.67
36248;BME280;22287;50.824;5.644;2023-02-01T03:26:13;101337.34;;;5.91;84.84
36248;BME280;22287;50.824;5.644;2023-02-01T03:28:51;101335.03;;;6.01;83.87
36248;BME280;22287;50.824;5.644;2023-02-01T03:31:22;101338.09;;;5.77;84.04
36248;BME280;22287;50.824;5.644;2023-02-01T03:33:50;101338.69;;;5.67;84.51
36248;BME280;22287;50.824;5.644;2023-02-01T03:36:25;101331.94;;;5.93;83.02
36248;BME280;22287;50.824;5.644;2023-02-01T03:39:16;101341.25;;;5.85;82.79
36248;BME280;22287;50.824;5.644;2023-02-01T03:41:53;101338.84;;;5.97;81.11
36248;BME280;22287;50.824;5.644;2023-02-01T03:44:46;101336.34;;;5.61;82.78
36248;BME280;22287;50.824;5.644;2023-02-01T03:47:22;101323.47;;;5.67;82.70
36248;BME280;22287;50.824;5.644;2023-02-01T03:50:04;101323.84;;;5.28;83.89
36248;BME280;22287;50.824;5.644;2023-02-01T03:52:38;101322.66;;;5.50;83.64
36248;BME280;22287;50.824;5.644;2023-02-01T03:55:09;101324.69;;;5.29;83.29
36248;BME280;22287;50.824;5.644;2023-02-01T03:57:45;101312.91;;;5.16;83.50
36248;BME280;22287;50.824;5.644;2023-02-01T04:00:21;101329.13;;;5.30;83.70
36248;BME280;22287;50.824;5.644;2023-02-01T04:02:53;101332.25;;;5.38;83.13
36248;BME280;22287;50.824;5.644;2023-02-01T04:05:21;101337.16;;;5.30;82.34
36248;BME280;22287;50.824;5.644;2023-02-01T04:07:54;101341.56;;;5.31;82.65
36248;BME280;22287;50.824;5.644;2023-02-01T04:10:21;101346.16;;;5.12;83.34
36248;BME280;22287;50.824;5.644;2023-02-01T04:12:49;101333.00;;;5.24;82.57
36248;BME280;22287;50.824;5.644;2023-02-01T04:15:19;101343.91;;;5.37;82.16
36248;BME280;22287;50.824;5.644;2023-02-01T04:17:46;101347.75;;;5.16;82.68
36248;BME280;22287;50.824;5.644;2023-02-01T04:20:13;101350.13;;;5.05;82.33
36248;BME280;22287;50.824;5.644;2023-02-01T04:22:40;101351.69;;;4.92;83.30
36248;BME280;22287;50.824;5.644;2023-02-01T04:25:09;101354.22;;;4.78;83.01
36248;BME280;22287;50.824;5.644;2023-02-01T04:27:36;101351.22;;;4.84;82.68
36248;BME280;22287;50.824;5.644;2023-02-01T04:30:04;101355.09;;;4.95;82.66
36248;BME280;22287;50.824;5.644;2023-02-01T04:32:31;101359.53;;;5.29;82.04
36248;BME280;22287;50.824;5.644;2023-02-01T04:34:58;101363.69;;;5.67;79.42
36248;BME280;22287;50.824;5.644;2023-02-01T04:37:24;101365.88;;;4.94;81.84
36248;BME280;22287;50.824;5.644;2023-02-01T04:39:51;101369.34;;;4.96;81.65
36248;BME280;22287;50.824;5.644;2023-02-01T04:42:18;101367.59;;;5.12;81.70
36248;BME280;22287;50.824;5.644;2023-02-01T04:44:45;101356.09;;;4.93;82.58
36248;BME280;22287;50.824;5.644;2023-02-01T04:47:12;101349.81;;;4.94;81.89
36248;BME280;22287;50.824;5.644;2023-02-01T04:49:41;101357.75;;;4.61;82.71
36248;BME280;22287;50.824;5.644;2023-02-01T04:52:08;101351.84;;;5.06;81.18
36248;BME280;22287;50.824;5.644;2023-02-01T04:54:37;101360.28;;;5.15;80.72
36248;BME280;22287;50.824;5.644;2023-02-01T04:57:04;101354.88;;;5.00;81.03
36248;BME280;22287;50.824;5.644;2023-02-01T04:59:31;101354.22;;;4.95;81.38
36248;BME280;22287;50.824;5.644;2023-02-01T05:01:57;101350.19;;;4.86;81.41
36248;BME280;22287;50.824;5.644;2023-02-01T05:04:25;101345.69;;;4.87;82.06
36248;BME280;22287;50.824;5.644;2023-02-01T05:06:52;101345.00;;;4.66;82.32
36248;BME280;22287;50.824;5.644;2023-02-01T05:09:19;101349.66;;;4.62;82.84
36248;BME280;22287;50.824;5.644;2023-02-01T05:11:48;101356.16;;;4.57;83.15
36248;BME280;22287;50.824;5.644;2023-02-01T05:14:34;101347.34;;;4.55;83.19
36248;BME280;22287;50.824;5.644;2023-02-01T05:17:01;101348.84;;;4.43;82.87
36248;BME280;22287;50.824;5.644;2023-02-01T05:19:28;101354.34;;;4.40;84.31
36248;BME280;22287;50.824;5.644;2023-02-01T05:21:56;101346.06;;;4.28;84.16
36248;BME280;22287;50.824;5.644;2023-02-01T05:24:24;101341.50;;;4.30;84.34
36248;BME280;22287;50.824;5.644;2023-02-01T05:26:50;101346.41;;;4.39;83.90
36248;BME280;22287;50.824;5.644;2023-02-01T05:29:18;101337.25;;;4.43;83.27
36248;BME280;22287;50.824;5.644;2023-02-01T05:31:45;101334.81;;;4.38;84.11
36248;BME280;22287;50.824;5.644;2023-02-01T05:34:13;101335.50;;;4.25;84.12
36248;BME280;22287;50.824;5.644;2023-02-01T05:36:40;101330.69;;;4.14;85.01
36248;BME280;22287;50.824;5.644;2023-02-01T05:39:07;101329.97;;;4.10;85.34
36248;BME280;22287;50.824;5.644;2023-02-01T05:41:34;101338.63;;;4.15;84.93
36248;BME280;22287;50.824;5.644;2023-02-01T05:44:01;101337.25;;;4.07;85.37
36248;BME280;22287;50.824;5.644;2023-02-01T05:46:29;101341.25;;;4.34;84.46
36248;BME280;22287;50.824;5.644;2023-02-01T05:48:57;101327.28;;;4.63;82.92
36248;BME280;22287;50.824;5.644;2023-02-01T05:51:25;101338.72;;;4.31;84.04
36248;BME280;22287;50.824;5.644;2023-02-01T05:53:52;101333.47;;;4.30;84.36
36248;BME280;22287;50.824;5.644;2023-02-01T05:56:19;101347.25;;;4.39;83.73
36248;BME280;22287;50.824;5.644;2023-02-01T05:58:46;101337.94;;;4.29;83.33
36248;BME280;22287;50.824;5.644;2023-02-01T06:01:15;101324.28;;;4.35;83.53
36248;BME280;22287;50.824;5.644;2023-02-01T06:03:42;101333.66;;;4.08;83.93
36248;BME280;22287;50.824;5.644;2023-02-01T06:06:09;101331.72;;;3.93;84.42
36248;BME280;22287;50.824;5.644;2023-02-01T06:08:36;101326.16;;;3.97;85.00
36248;BME280;22287;50.824;5.644;2023-02-01T06:11:05;101336.72;;;4.00;84.88
36248;BME280;22287;50.824;5.644;2023-02-01T06:13:32;101329.81;;;4.13;84.60
36248;BME280;22287;50.824;5.644;2023-02-01T06:16:03;101320.28;;;4.08;84.99
36248;BME280;22287;50.824;5.644;2023-02-01T06:18:31;101327.38;;;3.90;85.06
36248;BME280;22287;50.824;5.644;2023-02-01T06:20:59;101340.56;;;4.12;83.93
36248;BME280;22287;50.824;5.644;2023-02-01T06:23:30;101346.00;;;4.10;83.82
36248;BME280;22287;50.824;5.644;2023-02-01T06:25:59;101350.00;;;4.02;83.94
36248;BME280;22287;50.824;5.644;2023-02-01T06:28:41;101341.31;;;4.86;79.90
36248;BME280;22287;50.824;5.644;2023-02-01T06:31:08;101352.06;;;4.67;79.56
36248;BME280;22287;50.824;5.644;2023-02-01T06:33:49;101350.75;;;4.75;78.74
36248;BME280;22287;50.824;5.644;2023-02-01T06:36:30;101349.03;;;4.74;79.11
36248;BME280;22287;50.824;5.644;2023-02-01T06:38:57;101357.75;;;4.61;79.97
36248;BME280;22287;50.824;5.644;2023-02-01T06:41:26;101365.03;;;4.40;80.02
36248;BME280;22287;50.824;5.644;2023-02-01T06:43:57;101367.13;;;4.69;79.47
36248;BME280;22287;50.824;5.644;2023-02-01T06:46:24;101353.84;;;4.85;79.09
36248;BME280;22287;50.824;5.644;2023-02-01T06:48:52;101352.81;;;4.88;78.48
36248;BME280;22287;50.824;5.644;2023-02-01T06:51:21;101350.59;;;4.79;78.79
36248;BME280;22287;50.824;5.644;2023-02-01T06:53:49;101341.78;;;4.77;78.76
36248;BME280;22287;50.824;5.644;2023-02-01T06:56:16;101351.41;;;4.45;79.43
36248;BME280;22287;50.824;5.644;2023-02-01T06:58:43;101341.31;;;4.68;78.96
36248;BME280;22287;50.824;5.644;2023-02-01T07:01:10;101347.03;;;4.78;78.62
36248;BME280;22287;50.824;5.644;2023-02-01T07:03:41;101353.00;;;4.49;80.21
36248;BME280;22287;50.824;5.644;2023-02-01T07:06:08;101363.44;;;4.89;77.90
36248;BME280;22287;50.824;5.644;2023-02-01T07:08:37;101372.16;;;4.75;78.30
36248;BME280;22287;50.824;5.644;2023-02-01T07:11:06;101379.38;;;4.21;80.45
36248;BME280;22287;50.824;5.644;2023-02-01T07:13:33;101387.06;;;4.09;81.12
36248;BME280;22287;50.824;5.644;2023-02-01T07:16:02;101386.72;;;4.53;79.12
36248;BME280;22287;50.824;5.644;2023-02-01T07:18:30;101377.53;;;4.40;79.22
36248;BME280;22287;50.824;5.644;2023-02-01T07:20:57;101374.31;;;4.69;78.37
36248;BME280;22287;50.824;5.644;2023-02-01T07:23:28;101382.13;;;4.38;79.07
36248;BME280;22287;50.824;5.644;2023-02-01T07:25:57;101374.13;;;4.89;77.80
36248;BME280;22287;50.824;5.644;2023-02-01T07:28:29;101372.44;;;4.35;79.51
36248;BME280;22287;50.824;5.644;2023-02-01T07:33:35;101367.75;;;4.57;78.63
36248;BME280;22287;50.824;5.644;2023-02-01T07:36:05;101363.34;;;4.73;78.66
36248;BME280;22287;50.824;5.644;2023-02-01T07:38:33;101373.44;;;4.86;76.93
36248;BME280;22287;50.824;5.644;2023-02-01T07:41:04;101376.13;;;4.86;77.14
36248;BME280;22287;50.824;5.644;2023-02-01T07:43:32;101385.78;;;4.71;78.07
36248;BME280;22287;50.824;5.644;2023-02-01T07:46:03;101384.78;;;4.73;78.02
36248;BME280;22287;50.824;5.644;2023-02-01T07:48:31;101388.41;;;4.37;79.70
36248;BME280;22287;50.824;5.644;2023-02-01T07:51:08;101393.34;;;4.63;78.24
36248;BME280;22287;50.824;5.644;2023-02-01T07:53:35;101391.66;;;4.43;79.36
36248;BME280;22287;50.824;5.644;2023-02-01T07:56:03;101383.63;;;4.43;79.71
36248;BME280;22287;50.824;5.644;2023-02-01T07:58:31;101380.91;;;4.79;78.79
36248;BME280;22287;50.824;5.644;2023-02-01T08:00:58;101382.56;;;4.82;78.37
36248;BME280;22287;50.824;5.644;2023-02-01T08:03:54;101392.38;;;4.47;79.58
36248;BME280;22287;50.824;5.644;2023-02-01T08:06:22;101382.56;;;4.82;77.84
36248;BME280;22287;50.824;5.644;2023-02-01T08:08:51;101388.38;;;4.72;78.44
36248;BME280;22287;50.824;5.644;2023-02-01T08:11:18;101396.09;;;4.07;80.57
36248;BME280;22287;50.824;5.644;2023-02-01T08:13:46;101397.91;;;4.25;80.51
36248;BME280;22287;50.824;5.644;2023-02-01T08:16:15;101403.97;;;4.29;80.94
36248;BME280;22287;50.824;5.644;2023-02-01T08:18:42;101408.50;;;4.45;79.97
36248;BME280;22287;50.824;5.644;2023-02-01T08:21:14;101400.25;;;4.67;78.82
36248;BME280;22287;50.824;5.644;2023-02-01T08:23:42;101399.19;;;4.71;79.26
36248;BME280;22287;50.824;5.644;2023-02-01T08:26:21;101405.84;;;4.62;80.19
36248;BME280;22287;50.824;5.644;2023-02-01T08:28:52;101409.41;;;4.63;79.77
36248;BME280;22287;50.824;5.644;2023-02-01T08:31:21;101419.81;;;4.69;79.64
36248;BME280;22287;50.824;5.644;2023-02-01T08:33:57;101426.97;;;4.68;79.71
36248;BME280;22287;50.824;5.644;2023-02-01T08:36:27;101426.47;;;5.13;78.39
36248;BME280;22287;50.824;5.644;2023-02-01T08:38:55;101421.09;;;4.96;79.07
36248;BME280;22287;50.824;5.644;2023-02-01T08:41:24;101430.72;;;5.00;80.02
36248;BME280;22287;50.824;5.644;2023-02-01T08:43:53;101429.22;;;5.12;79.06
36248;BME280;22287;50.824;5.644;2023-02-01T08:46:21;101437.00;;;5.33;78.49
36248;BME280;22287;50.824;5.644;2023-02-01T08:48:49;101425.19;;;5.38;79.03
36248;BME280;22287;50.824;5.644;2023-02-01T08:51:19;101430.47;;;5.22;78.65
36248;BME280;22287;50.824;5.644;2023-02-01T08:53:47;101427.28;;;5.65;77.96
36248;BME280;22287;50.824;5.644;2023-02-01T08:56:28;101431.81;;;5.48;77.61
36248;BME280;22287;50.824;5.644;2023-02-01T08:58:55;101432.34;;;5.54;78.28
36248;BME280;22287;50.824;5.644;2023-02-01T09:01:22;101426.44;;;5.98;76.98
36248;BME280;22287;50.824;5.644;2023-02-01T09:03:49;101421.88;;;6.15;76.81
36248;BME280;22287;50.824;5.644;2023-02-01T09:06:16;101426.94;;;5.88;77.61
36248;BME280;22287;50.824;5.644;2023-02-01T09:08:43;101438.03;;;5.48;78.83
36248;BME280;22287;50.824;5.644;2023-02-01T09:11:25;101437.00;;;5.83;77.46
36248;BME280;22287;50.824;5.644;2023-02-01T09:13:53;101435.25;;;6.00;76.38
36248;BME280;22287;50.824;5.644;2023-02-01T09:16:20;101445.22;;;5.80;77.11
36248;BME280;22287;50.824;5.644;2023-02-01T09:18:48;101438.31;;;5.76;77.58
36248;BME280;22287;50.824;5.644;2023-02-01T09:21:33;101425.66;;;5.78;77.47
36248;BME280;22287;50.824;5.644;2023-02-01T09:24:00;101435.34;;;5.98;76.31
36248;BME280;22287;50.824;5.644;2023-02-01T09:26:27;101415.69;;;5.98;76.72
36248;BME280;22287;50.824;5.644;2023-02-01T09:28:59;101417.94;;;5.89;76.76
36248;BME280;22287;50.824;5.644;2023-02-01T09:31:26;101422.28;;;5.75;78.01
36248;BME280;22287;50.824;5.644;2023-02-01T09:33:53;101410.88;;;5.71;77.45
36248;BME280;22287;50.824;5.644;2023-02-01T09:36:20;101415.38;;;6.04;77.78
36248;BME280;22287;50.824;5.644;2023-02-01T09:38:47;101404.63;;;5.71;77.83
36248;BME280;22287;50.824;5.644;2023-02-01T09:46:45;101394.34;;;5.79;77.69
36248;BME280;22287;50.824;5.644;2023-02-01T09:49:20;101382.84;;;5.77;77.67
36248;BME280;22287;50.824;5.644;2023-02-01T09:51:50;101383.84;;;5.59;78.20
36248;BME280;22287;50.824;5.644;2023-02-01T09:54:22;101371.88;;;5.49;78.89
36248;BME280;22287;50.824;5.644;2023-02-01T09:56:55;101371.88;;;5.49;78.65
36248;BME280;22287;50.824;5.644;2023-02-01T09:59:37;101371.28;;;5.92;78.27
36248;BME280;22287;50.824;5.644;2023-02-01T10:02:12;101379.59;;;5.87;77.79
36248;BME280;22287;50.824;5.644;2023-02-01T10:04:40;101376.94;;;5.87;78.17
36248;BME280;22287;50.824;5.644;2023-02-01T10:16:07;101393.06;;;6.34;76.96
36248;BME280;22287;50.824;5.644;2023-02-01T10:18:48;101401.06;;;6.50;77.20
36248;BME280;22287;50.824;5.644;2023-02-01T10:21:30;101392.97;;;6.81;75.26
36248;BME280;22287;50.824;5.644;2023-02-01T10:26:46;101391.91;;;7.14;74.00
36248;BME280;22287;50.824;5.644;2023-02-01T10:29:24;101396.34;;;7.15;73.84
36248;BME280;22287;50.824;5.644;2023-02-01T10:31:53;101390.47;;;6.78;74.48
36248;BME280;22287;50.824;5.644;2023-02-01T10:34:25;101398.06;;;7.16;74.63
36248;BME280;22287;50.824;5.644;2023-02-01T10:37:00;101395.78;;;7.24;74.44
36248;BME280;22287;50.824;5.644;2023-02-01T10:39:28;101401.75;;;6.99;75.07
36248;BME280;22287;50.824;5.644;2023-02-01T10:41:55;101405.28;;;7.15;74.58
36248;BME280;22287;50.824;5.644;2023-02-01T10:44:28;101400.50;;;7.20;74.28
36248;BME280;22287;50.824;5.644;2023-02-01T10:46:56;101403.16;;;7.78;72.66
36248;BME280;22287;50.824;5.644;2023-02-01T10:49:32;101400.78;;;7.30;74.69
36248;BME280;22287;50.824;5.644;2023-02-01T10:54:36;101402.38;;;7.48;73.71
36248;BME280;22287;50.824;5.644;2023-02-01T10:57:21;101391.59;;;7.90;72.42
36248;BME280;22287;50.824;5.644;2023-02-01T10:59:50;101381.44;;;7.81;73.12
36248;BME280;22287;50.824;5.644;2023-02-01T11:02:32;101377.00;;;7.94;72.86
36248;BME280;22287;50.824;5.644;2023-02-01T11:05:10;101378.63;;;7.54;73.00
36248;BME280;22287;50.824;5.644;2023-02-01T11:07:39;101369.22;;;7.90;72.88
36248;BME280;22287;50.824;5.644;2023-02-01T11:10:34;101378.13;;;8.33;72.06
36248;BME280;22287;50.824;5.644;2023-02-01T11:13:03;101375.78;;;8.26;71.94
36248;BME280;22287;50.824;5.644;2023-02-01T11:15:30;101368.34;;;8.03;72.67
36248;BME280;22287;50.824;5.644;2023-02-01T11:18:14;101369.47;;;8.27;71.68
36248;BME280;22287;50.824;5.644;2023-02-01T11:20:42;101377.72;;;8.39;71.51
36248;BME280;22287;50.824;5.644;2023-02-01T11:23:17;101379.38;;;8.27;71.63
36248;BME280;22287;50.824;5.644;2023-02-01T11:25:55;101373.78;;;8.30;72.38
36248;BME280;22287;50.824;5.644;2023-02-01T11:28:25;101362.06;;;8.58;70.87
36248;BME280;22287;50.824;5.644;2023-02-01T11:30:54;101358.81;;;8.53;71.47
36248;BME280;22287;50.824;5.644;2023-02-01T11:33:30;101353.44;;;8.53;71.07
36248;BME280;22287;50.824;5.644;2023-02-01T11:36:18;101349.41;;;8.46;71.56
36248;BME280;22287;50.824;5.644;2023-02-01T11:39:08;101331.72;;;8.81;70.90
36248;BME280;22287;50.824;5.644;2023-02-01T11:44:21;101326.78;;;8.75;70.01
36248;BME280;22287;50.824;5.644;2023-02-01T11:46:49;101319.97;;;8.82;69.90
36248;BME280;22287;50.824;5.644;2023-02-01T11:49:34;101322.59;;;8.57;70.10
36248;BME280;22287;50.824;5.644;2023-02-01T12:06:08;101312.16;;;8.92;69.92
36248;BME280;22287;50.824;5.644;2023-02-01T12:14:48;101313.00;;;9.17;68.30
36248;BME280;22287;50.824;5.644;2023-02-01T12:29:35;101302.59;;;8.61;68.66
36248;BME280;22287;50.824;5.644;2023-02-01T12:46:12;101303.47;;;8.20;67.81
36248;BME280;22287;50.824;5.644;2023-02-01T12:51:26;101303.41;;;8.49;65.97
36248;BME280;22287;50.824;5.644;2023-02-01T12:54:06;101302.94;;;8.69;65.95
36248;BME280;22287;50.824;5.644;2023-02-01T12:56:50;101293.53;;;8.62;65.13
36248;BME280;22287;50.824;5.644;2023-02-01T12:59:48;101301.25;;;8.00;70.61
36248;BME280;22287;50.824;5.644;2023-02-01T13:02:43;101299.66;;;7.84;72.32
36248;BME280;22287;50.824;5.644;2023-02-01T13:05:17;101311.19;;;8.12;72.60
36248;BME280;22287;50.824;5.644;2023-02-01T13:10:36;101309.91;;;7.91;72.90
36248;BME280;22287;50.824;5.644;2023-02-01T13:18:53;101277.09;;;7.58;73.98
36248;BME280;22287;50.824;5.644;2023-02-01T13:21:26;101274.41;;;7.44;73.21
36248;BME280;22287;50.824;5.644;2023-02-01T13:24:23;101274.97;;;7.63;73.77
36248;BME280;22287;50.824;5.644;2023-02-01T13:26:54;101276.03;;;7.60;74.75
36248;BME280;22287;50.824;5.644;2023-02-01T13:29:23;101276.91;;;7.61;74.63
36248;BME280;22287;50.824;5.644;2023-02-01T13:43:01;101270.84;;;7.57;74.99
36248;BME280;22287;50.824;5.644;2023-02-01T13:45:35;101269.03;;;7.44;74.72
36248;BME280;22287;50.824;5.644;2023-02-01T13:48:05;101269.97;;;7.57;74.24
36248;BME280;22287;50.824;5.644;2023-02-01T13:50:52;101280.16;;;7.52;74.71
36248;BME280;22287;50.824;5.644;2023-02-01T13:53:27;101269.56;;;7.77;73.31
36248;BME280;22287;50.824;5.644;2023-02-01T13:56:12;101270.34;;;7.65;74.17
36248;BME280;22287;50.824;5.644;2023-02-01T13:58:41;101273.91;;;7.65;73.22
36248;BME280;22287;50.824;5.644;2023-02-01T14:03:54;101276.31;;;7.70;74.18
36248;BME280;22287;50.824;5.644;2023-02-01T14:09:13;101277.16;;;7.70;73.73
36248;BME280;22287;50.824;5.644;2023-02-01T14:19:36;101286.72;;;7.62;73.51
36248;BME280;22287;50.824;5.644;2023-02-01T14:24:56;101282.34;;;7.74;72.66
36248;BME280;22287;50.824;5.644;2023-02-01T14:27:38;101289.69;;;7.57;73.30
36248;BME280;22287;50.824;5.644;2023-02-01T14:30:20;101285.66;;;7.64;73.27
36248;BME280;22287;50.824;5.644;2023-02-01T14:32:47;101283.72;;;7.66;73.14
36248;BME280;22287;50.824;5.644;2023-02-01T14:35:24;101285.66;;;7.64;73.15
36248;BME280;22287;50.824;5.644;2023-02-01T14:37:59;101289.47;;;7.75;73.36
36248;BME280;22287;50.824;5.644;2023-02-01T14:40:28;101300.91;;;7.78;73.03
36248;BME280;22287;50.824;5.644;2023-02-01T14:42:55;101307.25;;;7.63;73.48
36248;BME280;22287;50.824;5.644;2023-02-01T14:47:55;101297.03;;;7.82;72.88
36248;BME280;22287;50.824;5.644;2023-02-01T14:50:43;101295.22;;;7.83;73.09
36248;BME280;22287;50.824;5.644;2023-02-01T15:00:56;101305.13;;;7.82;72.75
36248;BME280;22287;50.824;5.644;2023-02-01T15:03:36;101304.34;;;7.80;73.00
36248;BME280;22287;50.824;5.644;2023-02-01T15:06:38;101307.81;;;7.82;73.26
36248;BME280;22287;50.824;5.644;2023-02-01T15:12:04;101299.66;;;7.69;73.59
36248;BME280;22287;50.824;5.644;2023-02-01T15:14:37;101301.34;;;7.85;73.22
36248;BME280;22287;50.824;5.644;2023-02-01T15:19:59;101309.34;;;7.86;73.30
36248;BME280;22287;50.824;5.644;2023-02-01T15:22:26;101302.72;;;7.92;73.60
36248;BME280;22287;50.824;5.644;2023-02-01T15:24:59;101297.66;;;7.31;74.88
36248;BME280;22287;50.824;5.644;2023-02-01T15:27:27;101305.56;;;7.48;74.88
36248;BME280;22287;50.824;5.644;2023-02-01T15:30:05;101297.66;;;7.73;73.85
36248;BME280;22287;50.824;5.644;2023-02-01T15:32:39;101308.50;;;7.72;74.22
36248;BME280;22287;50.824;5.644;2023-02-01T15:35:38;101310.69;;;7.65;74.21
36248;BME280;22287;50.824;5.644;2023-02-01T15:46:35;101330.22;;;7.54;74.50
36248;BME280;22287;50.824;5.644;2023-02-01T15:49:04;101323.88;;;7.55;75.22
36248;BME280;22287;50.824;5.644;2023-02-01T15:51:32;101327.53;;;7.40;75.31
36248;BME280;22287;50.824;5.644;2023-02-01T15:54:02;101323.19;;;7.38;75.41
36248;BME280;22287;50.824;5.644;2023-02-01T15:56:36;101330.81;;;7.31;76.44
36248;BME280;22287;50.824;5.644;2023-02-01T15:59:13;101333.94;;;7.09;76.62
36248;BME280;22287;50.824;5.644;2023-02-01T16:01:41;101334.63;;;7.27;76.08
36248;BME280;22287;50.824;5.644;2023-02-01T16:04:25;101342.88;;;7.24;76.80
36248;BME280;22287;50.824;5.644;2023-02-01T16:07:03;101346.91;;;7.59;75.36
36248;BME280;22287;50.824;5.644;2023-02-01T16:09:39;101355.22;;;7.13;76.98
36248;BME280;22287;50.824;5.644;2023-02-01T16:15:09;101353.19;;;7.02;78.30
36248;BME280;22287;50.824;5.644;2023-02-01T16:17:36;101355.22;;;6.98;78.30
36248;BME280;22287;50.824;5.644;2023-02-01T16:20:03;101359.38;;;7.18;78.45
36248;BME280;22287;50.824;5.644;2023-02-01T16:22:30;101356.09;;;7.13;77.88